Карточка аэропорта UAII

Внимание!
Информация на этой странице в стадии наполнения.
Если вы не увидели какой-то информации, или заметили неточность - пожалуйста сообщите нам!
Спасибо!
Команда RU-STAFF
Название аэропортаШымкент
Название аэропорта (англ.)Shymkent
Превышение1389 ft. (423.4 m.)
Координаты42°21.348', 69°28.734'
Высота перехода10000ft
Эшелон переходаFL120, QNH<733:FL130
Коды ответчика3430-3437, 3530-3537
Зона ОрВДШымкент РПИ (UAII)
Данные METARUAII 181800Z 15002MPS 130V230 CAVOK 18/12 Q1011 NOSIG RMK QFE723/0964
Проноз погоды (TAF)UAII 181711Z 1818/1918 12003G08MPS 6000 FEW050CB TX17/1909Z TN13/1901Z TEMPO 1818/1822 18003G08MPS 3100 BR SCT011 BKN020CB FM182200 29005G12MPS 3100 -SHRA BR BKN011 BKN020CB TEMPO 1822/1907 23010G17MPS 0500 +TSRAGR BKN002 BKN011CB TEMPO 1907/1912 35003G08MPS -TSRAGR BKN011CB
NOTAMshow/hide NOTAM
AWOS   TABLE

Информация о ВПП

ВПП Длина ВПП (м.) Покрытие Курс ВПП Частота ILS
103300Железобетон106111.7
283300Железобетон286110.3

Диспетчерские позиции

Позывной Наименование органа УВД Частота
UAII_TWRШымкент Вышка125.9
UAII_APPШымкент-Подход120.3



Спутниковое изображение